sensor_id;sensor_type;location;lat;lon;timestamp;P1;durP1;ratioP1;P2;durP2;ratioP2
13075;SDS011;6604;52.484;13.330;2022-11-15T07:49:17;31.93;;;18.47;;
13075;SDS011;6604;52.484;13.330;2022-11-15T07:51:44;40.60;;;19.70;;
13075;SDS011;6604;52.484;13.330;2022-11-15T07:54:11;36.67;;;19.30;;
13075;SDS011;6604;52.484;13.330;2022-11-15T07:56:37;35.60;;;19.70;;
13075;SDS011;6604;52.484;13.330;2022-11-15T07:59:04;35.07;;;20.43;;
13075;SDS011;6604;52.484;13.330;2022-11-15T08:01:30;32.97;;;18.30;;
13075;SDS011;6604;52.484;13.330;2022-11-15T08:03:57;32.77;;;18.57;;
13075;SDS011;6604;52.484;13.330;2022-11-15T08:06:25;33.10;;;19.73;;
13075;SDS011;6604;52.484;13.330;2022-11-15T08:08:51;29.90;;;17.20;;
13075;SDS011;6604;52.484;13.330;2022-11-15T08:11:18;31.90;;;18.17;;
13075;SDS011;6604;52.484;13.330;2022-11-15T08:13:45;30.40;;;18.03;;
13075;SDS011;6604;52.484;13.330;2022-11-15T08:16:11;30.83;;;18.23;;
13075;SDS011;6604;52.484;13.330;2022-11-15T08:18:38;28.77;;;17.23;;
13075;SDS011;6604;52.484;13.330;2022-11-15T08:21:04;31.47;;;17.60;;
13075;SDS011;6604;52.484;13.330;2022-11-15T08:23:32;32.60;;;18.10;;
13075;SDS011;6604;52.484;13.330;2022-11-15T08:25:59;29.77;;;18.43;;
13075;SDS011;6604;52.484;13.330;2022-11-15T08:28:26;28.00;;;17.90;;
13075;SDS011;6604;52.484;13.330;2022-11-15T08:30:53;31.63;;;17.73;;
13075;SDS011;6604;52.484;13.330;2022-11-15T08:33:19;35.07;;;18.37;;
13075;SDS011;6604;52.484;13.330;2022-11-15T08:35:46;29.63;;;17.37;;
13075;SDS011;6604;52.484;13.330;2022-11-15T08:38:12;31.63;;;17.20;;
13075;SDS011;6604;52.484;13.330;2022-11-15T08:40:40;28.63;;;17.07;;
13075;SDS011;6604;52.484;13.330;2022-11-15T08:43:07;27.60;;;16.90;;
13075;SDS011;6604;52.484;13.330;2022-11-15T08:45:34;30.20;;;17.63;;
13075;SDS011;6604;52.484;13.330;2022-11-15T08:48:01;32.50;;;18.43;;
13075;SDS011;6604;52.484;13.330;2022-11-15T08:50:28;29.90;;;18.60;;
13075;SDS011;6604;52.484;13.330;2022-11-15T08:52:54;30.40;;;17.77;;
13075;SDS011;6604;52.484;13.330;2022-11-15T08:55:21;29.40;;;17.57;;
13075;SDS011;6604;52.484;13.330;2022-11-15T08:57:49;29.60;;;16.67;;
13075;SDS011;6604;52.484;13.330;2022-11-15T09:00:16;32.13;;;18.20;;
13075;SDS011;6604;52.484;13.330;2022-11-15T09:02:44;34.70;;;17.47;;
13075;SDS011;6604;52.484;13.330;2022-11-15T09:05:11;29.20;;;17.27;;
13075;SDS011;6604;52.484;13.330;2022-11-15T09:07:37;30.67;;;16.80;;
13075;SDS011;6604;52.484;13.330;2022-11-15T09:10:04;28.63;;;15.80;;
13075;SDS011;6604;52.484;13.330;2022-11-15T09:12:31;26.57;;;15.40;;
13075;SDS011;6604;52.484;13.330;2022-11-15T09:14:58;30.50;;;16.27;;
13075;SDS011;6604;52.484;13.330;2022-11-15T09:17:25;27.43;;;16.37;;
13075;SDS011;6604;52.484;13.330;2022-11-15T09:19:52;24.67;;;15.47;;
13075;SDS011;6604;52.484;13.330;2022-11-15T09:22:18;25.27;;;14.90;;
13075;SDS011;6604;52.484;13.330;2022-11-15T09:24:45;24.37;;;14.57;;
13075;SDS011;6604;52.484;13.330;2022-11-15T09:27:11;26.37;;;15.70;;
13075;SDS011;6604;52.484;13.330;2022-11-15T09:29:38;25.57;;;15.07;;
13075;SDS011;6604;52.484;13.330;2022-11-15T09:32:06;24.40;;;14.77;;
13075;SDS011;6604;52.484;13.330;2022-11-15T09:34:32;23.57;;;14.40;;
13075;SDS011;6604;52.484;13.330;2022-11-15T09:37:00;25.43;;;14.13;;
13075;SDS011;6604;52.484;13.330;2022-11-15T09:39:27;24.67;;;14.67;;
13075;SDS011;6604;52.484;13.330;2022-11-15T09:41:57;24.20;;;13.97;;
13075;SDS011;6604;52.484;13.330;2022-11-15T09:44:29;24.27;;;13.77;;
13075;SDS011;6604;52.484;13.330;2022-11-15T09:47:00;22.63;;;13.33;;
13075;SDS011;6604;52.484;13.330;2022-11-15T09:49:33;25.10;;;12.57;;
13075;SDS011;6604;52.484;13.330;2022-11-15T09:51:59;23.77;;;13.63;;
13075;SDS011;6604;52.484;13.330;2022-11-15T09:54:27;20.77;;;12.53;;
13075;SDS011;6604;52.484;13.330;2022-11-15T09:56:55;21.03;;;12.47;;
13075;SDS011;6604;52.484;13.330;2022-11-15T09:59:26;22.70;;;12.93;;
13075;SDS011;6604;52.484;13.330;2022-11-15T10:01:56;21.73;;;13.10;;
13075;SDS011;6604;52.484;13.330;2022-11-15T10:04:27;19.77;;;13.17;;
13075;SDS011;6604;52.484;13.330;2022-11-15T10:06:58;19.77;;;12.50;;
13075;SDS011;6604;52.484;13.330;2022-11-15T10:09:28;19.00;;;12.53;;
13075;SDS011;6604;52.484;13.330;2022-11-15T10:11:58;23.40;;;12.50;;
13075;SDS011;6604;52.484;13.330;2022-11-15T10:14:26;22.27;;;12.57;;
13075;SDS011;6604;52.484;13.330;2022-11-15T10:17:00;20.73;;;12.83;;
13075;SDS011;6604;52.484;13.330;2022-11-15T10:19:31;21.00;;;12.73;;
13075;SDS011;6604;52.484;13.330;2022-11-15T10:22:03;24.63;;;13.47;;
13075;SDS011;6604;52.484;13.330;2022-11-15T10:24:37;18.53;;;11.87;;
13075;SDS011;6604;52.484;13.330;2022-11-15T10:27:07;21.70;;;13.27;;
13075;SDS011;6604;52.484;13.330;2022-11-15T10:29:35;19.93;;;13.30;;
13075;SDS011;6604;52.484;13.330;2022-11-15T10:32:02;20.77;;;13.07;;
13075;SDS011;6604;52.484;13.330;2022-11-15T10:34:28;21.30;;;12.60;;
13075;SDS011;6604;52.484;13.330;2022-11-15T10:36:55;22.93;;;13.37;;
13075;SDS011;6604;52.484;13.330;2022-11-15T10:39:23;20.77;;;12.37;;
13075;SDS011;6604;52.484;13.330;2022-11-15T10:41:50;20.67;;;12.47;;
13075;SDS011;6604;52.484;13.330;2022-11-15T10:44:18;20.03;;;12.77;;
13075;SDS011;6604;52.484;13.330;2022-11-15T10:46:45;19.77;;;12.33;;
13075;SDS011;6604;52.484;13.330;2022-11-15T10:49:14;20.23;;;11.90;;
13075;SDS011;6604;52.484;13.330;2022-11-15T10:51:41;22.30;;;12.77;;
13075;SDS011;6604;52.484;13.330;2022-11-15T10:54:09;21.73;;;11.87;;
13075;SDS011;6604;52.484;13.330;2022-11-15T10:56:38;19.37;;;12.33;;
13075;SDS011;6604;52.484;13.330;2022-11-15T10:59:12;21.20;;;12.83;;
13075;SDS011;6604;52.484;13.330;2022-11-15T11:01:45;20.77;;;12.53;;
13075;SDS011;6604;52.484;13.330;2022-11-15T11:04:11;20.30;;;12.30;;
13075;SDS011;6604;52.484;13.330;2022-11-15T11:06:46;19.13;;;13.03;;
13075;SDS011;6604;52.484;13.330;2022-11-15T11:09:19;22.07;;;12.70;;
13075;SDS011;6604;52.484;13.330;2022-11-15T11:11:50;22.93;;;13.43;;
13075;SDS011;6604;52.484;13.330;2022-11-15T11:14:21;23.07;;;13.23;;
13075;SDS011;6604;52.484;13.330;2022-11-15T11:16:49;20.57;;;12.27;;
13075;SDS011;6604;52.484;13.330;2022-11-15T11:22:13;21.93;;;12.20;;
13075;SDS011;6604;52.484;13.330;2022-11-15T11:24:44;23.17;;;12.57;;
13075;SDS011;6604;52.484;13.330;2022-11-15T11:27:20;21.70;;;13.20;;
13075;SDS011;6604;52.484;13.330;2022-11-15T11:29:58;19.70;;;12.47;;
13075;SDS011;6604;52.484;13.330;2022-11-15T11:32:30;22.67;;;13.07;;
13075;SDS011;6604;52.484;13.330;2022-11-15T11:35:02;17.80;;;12.07;;
13075;SDS011;6604;52.484;13.330;2022-11-15T11:37:32;18.10;;;12.10;;
13075;SDS011;6604;52.484;13.330;2022-11-15T11:40:04;23.43;;;13.03;;
13075;SDS011;6604;52.484;13.330;2022-11-15T11:42:36;20.60;;;12.57;;
13075;SDS011;6604;52.484;13.330;2022-11-15T11:45:11;21.47;;;12.07;;
13075;SDS011;6604;52.484;13.330;2022-11-15T11:47:44;18.23;;;11.17;;
13075;SDS011;6604;52.484;13.330;2022-11-15T11:50:13;18.77;;;11.67;;
13075;SDS011;6604;52.484;13.330;2022-11-15T11:52:41;18.57;;;12.67;;
13075;SDS011;6604;52.484;13.330;2022-11-15T11:55:12;20.87;;;12.50;;
13075;SDS011;6604;52.484;13.330;2022-11-15T11:57:44;19.53;;;12.27;;
13075;SDS011;6604;52.484;13.330;2022-11-15T12:00:14;19.17;;;11.87;;
13075;SDS011;6604;52.484;13.330;2022-11-15T12:02:43;19.03;;;10.97;;
13075;SDS011;6604;52.484;13.330;2022-11-15T12:05:12;18.87;;;11.63;;
13075;SDS011;6604;52.484;13.330;2022-11-15T12:07:40;19.17;;;11.90;;
13075;SDS011;6604;52.484;13.330;2022-11-15T12:10:14;16.53;;;11.00;;
13075;SDS011;6604;52.484;13.330;2022-11-15T12:12:44;19.33;;;11.73;;
13075;SDS011;6604;52.484;13.330;2022-11-15T12:15:15;15.37;;;10.80;;
13075;SDS011;6604;52.484;13.330;2022-11-15T12:17:42;18.07;;;11.13;;
13075;SDS011;6604;52.484;13.330;2022-11-15T12:20:14;17.87;;;10.80;;
13075;SDS011;6604;52.484;13.330;2022-11-15T12:22:43;18.63;;;10.87;;
13075;SDS011;6604;52.484;13.330;2022-11-15T12:25:18;17.23;;;10.47;;
13075;SDS011;6604;52.484;13.330;2022-11-15T12:27:48;15.33;;;10.10;;
13075;SDS011;6604;52.484;13.330;2022-11-15T12:30:17;18.27;;;10.07;;
13075;SDS011;6604;52.484;13.330;2022-11-15T12:32:54;14.63;;;9.53;;
13075;SDS011;6604;52.484;13.330;2022-11-15T12:35:24;19.33;;;10.90;;
13075;SDS011;6604;52.484;13.330;2022-11-15T12:37:51;17.10;;;10.93;;
13075;SDS011;6604;52.484;13.330;2022-11-15T12:40:23;16.40;;;9.90;;
13075;SDS011;6604;52.484;13.330;2022-11-15T12:43:01;15.77;;;9.00;;
13075;SDS011;6604;52.484;13.330;2022-11-15T12:45:29;17.47;;;10.07;;
13075;SDS011;6604;52.484;13.330;2022-11-15T12:48:21;18.60;;;10.20;;
13075;SDS011;6604;52.484;13.330;2022-11-15T12:50:52;17.30;;;10.53;;
13075;SDS011;6604;52.484;13.330;2022-11-15T12:53:29;17.93;;;10.17;;
13075;SDS011;6604;52.484;13.330;2022-11-15T12:56:09;16.80;;;10.17;;
13075;SDS011;6604;52.484;13.330;2022-11-15T12:58:43;16.73;;;10.53;;
13075;SDS011;6604;52.484;13.330;2022-11-15T13:01:20;18.13;;;10.03;;
13075;SDS011;6604;52.484;13.330;2022-11-15T13:04:23;18.70;;;11.80;;
13075;SDS011;6604;52.484;13.330;2022-11-15T13:06:52;19.37;;;10.50;;
13075;SDS011;6604;52.484;13.330;2022-11-15T13:12:07;21.57;;;12.47;;
13075;SDS011;6604;52.484;13.330;2022-11-15T13:14:41;16.80;;;10.67;;
13075;SDS011;6604;52.484;13.330;2022-11-15T13:17:27;32.30;;;12.20;;
13075;SDS011;6604;52.484;13.330;2022-11-15T13:20:00;26.93;;;12.20;;
13075;SDS011;6604;52.484;13.330;2022-11-15T13:22:27;20.70;;;11.33;;
13075;SDS011;6604;52.484;13.330;2022-11-15T13:25:18;17.70;;;10.70;;
13075;SDS011;6604;52.484;13.330;2022-11-15T13:27:46;21.27;;;11.53;;
13075;SDS011;6604;52.484;13.330;2022-11-15T13:30:14;27.73;;;12.37;;
13075;SDS011;6604;52.484;13.330;2022-11-15T13:32:42;25.87;;;12.43;;
13075;SDS011;6604;52.484;13.330;2022-11-15T13:35:17;20.47;;;12.03;;
13075;SDS011;6604;52.484;13.330;2022-11-15T13:37:44;25.93;;;12.40;;
13075;SDS011;6604;52.484;13.330;2022-11-15T13:40:21;35.77;;;13.77;;
13075;SDS011;6604;52.484;13.330;2022-11-15T13:42:48;55.57;;;15.93;;
13075;SDS011;6604;52.484;13.330;2022-11-15T13:45:15;26.07;;;12.73;;
13075;SDS011;6604;52.484;13.330;2022-11-15T13:47:42;31.30;;;13.90;;
13075;SDS011;6604;52.484;13.330;2022-11-15T13:50:11;23.90;;;14.13;;
13075;SDS011;6604;52.484;13.330;2022-11-15T13:52:38;24.90;;;12.97;;
13075;SDS011;6604;52.484;13.330;2022-11-15T13:55:09;19.37;;;11.83;;
13075;SDS011;6604;52.484;13.330;2022-11-15T13:57:39;18.97;;;11.83;;
13075;SDS011;6604;52.484;13.330;2022-11-15T14:00:29;22.00;;;13.10;;
13075;SDS011;6604;52.484;13.330;2022-11-15T14:02:56;20.77;;;11.43;;
13075;SDS011;6604;52.484;13.330;2022-11-15T14:05:24;22.37;;;12.80;;
13075;SDS011;6604;52.484;13.330;2022-11-15T14:07:54;20.50;;;12.17;;
13075;SDS011;6604;52.484;13.330;2022-11-15T14:10:25;21.87;;;12.03;;
13075;SDS011;6604;52.484;13.330;2022-11-15T14:12:53;21.33;;;12.17;;
13075;SDS011;6604;52.484;13.330;2022-11-15T14:15:25;23.07;;;12.33;;
13075;SDS011;6604;52.484;13.330;2022-11-15T14:17:52;22.27;;;11.73;;
13075;SDS011;6604;52.484;13.330;2022-11-15T14:20:19;19.47;;;12.23;;
13075;SDS011;6604;52.484;13.330;2022-11-15T14:22:52;18.03;;;12.17;;
13075;SDS011;6604;52.484;13.330;2022-11-15T14:25:19;18.53;;;12.00;;
13075;SDS011;6604;52.484;13.330;2022-11-15T14:30:27;19.00;;;11.63;;
13075;SDS011;6604;52.484;13.330;2022-11-15T14:32:54;20.37;;;12.10;;
13075;SDS011;6604;52.484;13.330;2022-11-15T14:35:21;18.10;;;12.37;;
13075;SDS011;6604;52.484;13.330;2022-11-15T14:37:48;19.47;;;12.47;;
13075;SDS011;6604;52.484;13.330;2022-11-15T14:40:17;17.37;;;11.27;;
13075;SDS011;6604;52.484;13.330;2022-11-15T14:42:44;19.27;;;11.63;;
13075;SDS011;6604;52.484;13.330;2022-11-15T14:45:12;21.47;;;11.73;;
13075;SDS011;6604;52.484;13.330;2022-11-15T14:47:40;19.03;;;11.67;;
13075;SDS011;6604;52.484;13.330;2022-11-15T14:50:10;19.93;;;11.87;;
13075;SDS011;6604;52.484;13.330;2022-11-15T14:52:37;19.87;;;11.40;;
13075;SDS011;6604;52.484;13.330;2022-11-15T14:55:08;19.87;;;12.27;;
13075;SDS011;6604;52.484;13.330;2022-11-15T14:57:39;20.30;;;11.97;;
13075;SDS011;6604;52.484;13.330;2022-11-15T15:00:06;18.63;;;12.63;;
13075;SDS011;6604;52.484;13.330;2022-11-15T15:02:35;20.13;;;11.73;;
13075;SDS011;6604;52.484;13.330;2022-11-15T15:05:08;21.70;;;12.77;;
13075;SDS011;6604;52.484;13.330;2022-11-15T15:07:39;20.13;;;11.67;;
13075;SDS011;6604;52.484;13.330;2022-11-15T15:10:05;21.33;;;12.10;;
13075;SDS011;6604;52.484;13.330;2022-11-15T15:12:32;16.83;;;11.47;;
13075;SDS011;6604;52.484;13.330;2022-11-15T15:15:00;19.90;;;12.07;;
13075;SDS011;6604;52.484;13.330;2022-11-15T15:17:27;20.07;;;12.60;;
13075;SDS011;6604;52.484;13.330;2022-11-15T15:19:53;23.30;;;11.40;;
13075;SDS011;6604;52.484;13.330;2022-11-15T15:22:20;18.43;;;11.53;;
13075;SDS011;6604;52.484;13.330;2022-11-15T15:24:50;21.07;;;12.63;;
13075;SDS011;6604;52.484;13.330;2022-11-15T15:27:17;19.60;;;12.17;;
13075;SDS011;6604;52.484;13.330;2022-11-15T15:29:43;21.10;;;12.13;;
13075;SDS011;6604;52.484;13.330;2022-11-15T15:32:11;16.87;;;11.60;;
13075;SDS011;6604;52.484;13.330;2022-11-15T15:34:38;19.67;;;12.10;;
13075;SDS011;6604;52.484;13.330;2022-11-15T15:37:06;19.87;;;12.33;;
13075;SDS011;6604;52.484;13.330;2022-11-15T15:39:33;22.10;;;14.23;;
13075;SDS011;6604;52.484;13.330;2022-11-15T15:42:00;18.17;;;11.73;;
13075;SDS011;6604;52.484;13.330;2022-11-15T15:44:26;18.90;;;12.10;;
13075;SDS011;6604;52.484;13.330;2022-11-15T15:46:53;21.40;;;12.33;;
13075;SDS011;6604;52.484;13.330;2022-11-15T15:49:21;21.23;;;12.70;;
13075;SDS011;6604;52.484;13.330;2022-11-15T15:51:47;18.70;;;11.97;;
13075;SDS011;6604;52.484;13.330;2022-11-15T15:54:14;19.63;;;12.33;;
13075;SDS011;6604;52.484;13.330;2022-11-15T15:56:40;24.60;;;12.00;;
13075;SDS011;6604;52.484;13.330;2022-11-15T15:59:07;20.00;;;13.10;;
13075;SDS011;6604;52.484;13.330;2022-11-15T16:01:33;21.80;;;13.70;;
13075;SDS011;6604;52.484;13.330;2022-11-15T16:04:00;21.27;;;12.43;;
13075;SDS011;6604;52.484;13.330;2022-11-15T16:06:38;20.23;;;13.13;;
13075;SDS011;6604;52.484;13.330;2022-11-15T16:09:08;21.30;;;12.80;;
13075;SDS011;6604;52.484;13.330;2022-11-15T16:11:35;20.53;;;12.37;;
13075;SDS011;6604;52.484;13.330;2022-11-15T16:14:01;21.50;;;12.67;;
13075;SDS011;6604;52.484;13.330;2022-11-15T16:16:28;17.93;;;12.20;;
13075;SDS011;6604;52.484;13.330;2022-11-15T16:18:54;20.73;;;12.43;;
13075;SDS011;6604;52.484;13.330;2022-11-15T16:21:21;21.13;;;11.87;;
13075;SDS011;6604;52.484;13.330;2022-11-15T16:23:49;20.20;;;12.20;;
13075;SDS011;6604;52.484;13.330;2022-11-15T16:26:18;20.97;;;13.03;;
13075;SDS011;6604;52.484;13.330;2022-11-15T16:28:46;21.90;;;13.27;;
13075;SDS011;6604;52.484;13.330;2022-11-15T16:31:12;20.07;;;12.87;;
13075;SDS011;6604;52.484;13.330;2022-11-15T16:33:39;19.67;;;12.87;;
13075;SDS011;6604;52.484;13.330;2022-11-15T16:36:14;23.17;;;14.20;;
13075;SDS011;6604;52.484;13.330;2022-11-15T16:38:42;21.03;;;13.17;;
13075;SDS011;6604;52.484;13.330;2022-11-15T16:41:10;22.63;;;13.97;;
13075;SDS011;6604;52.484;13.330;2022-11-15T16:43:36;19.73;;;13.13;;
13075;SDS011;6604;52.484;13.330;2022-11-15T16:46:07;22.97;;;13.33;;
13075;SDS011;6604;52.484;13.330;2022-11-15T16:48:35;21.47;;;13.87;;
13075;SDS011;6604;52.484;13.330;2022-11-15T16:51:01;22.80;;;14.27;;
13075;SDS011;6604;52.484;13.330;2022-11-15T16:53:29;23.43;;;13.70;;
13075;SDS011;6604;52.484;13.330;2022-11-15T16:55:55;23.80;;;14.87;;
13075;SDS011;6604;52.484;13.330;2022-11-15T16:58:23;22.13;;;14.03;;
13075;SDS011;6604;52.484;13.330;2022-11-15T17:00:50;25.63;;;16.30;;
13075;SDS011;6604;52.484;13.330;2022-11-15T17:03:18;23.97;;;14.77;;
13075;SDS011;6604;52.484;13.330;2022-11-15T17:05:44;24.10;;;15.37;;
13075;SDS011;6604;52.484;13.330;2022-11-15T17:08:11;24.97;;;15.73;;
13075;SDS011;6604;52.484;13.330;2022-11-15T17:10:37;24.20;;;15.43;;
13075;SDS011;6604;52.484;13.330;2022-11-15T17:13:04;23.30;;;15.30;;
13075;SDS011;6604;52.484;13.330;2022-11-15T17:15:32;28.13;;;16.63;;
13075;SDS011;6604;52.484;13.330;2022-11-15T17:17:59;25.90;;;16.20;;
13075;SDS011;6604;52.484;13.330;2022-11-15T17:20:25;26.77;;;17.07;;
13075;SDS011;6604;52.484;13.330;2022-11-15T17:22:52;28.13;;;16.67;;
13075;SDS011;6604;52.484;13.330;2022-11-15T17:25:19;27.77;;;17.70;;
13075;SDS011;6604;52.484;13.330;2022-11-15T17:27:45;28.67;;;17.80;;
13075;SDS011;6604;52.484;13.330;2022-11-15T17:30:12;27.10;;;17.30;;
13075;SDS011;6604;52.484;13.330;2022-11-15T17:32:40;32.90;;;18.77;;
13075;SDS011;6604;52.484;13.330;2022-11-15T17:35:08;32.23;;;19.73;;
13075;SDS011;6604;52.484;13.330;2022-11-15T17:37:35;34.47;;;19.93;;
13075;SDS011;6604;52.484;13.330;2022-11-15T17:40:02;34.37;;;19.20;;
13075;SDS011;6604;52.484;13.330;2022-11-15T17:42:29;31.47;;;19.23;;
13075;SDS011;6604;52.484;13.330;2022-11-15T17:44:56;33.63;;;21.47;;
13075;SDS011;6604;52.484;13.330;2022-11-15T17:47:22;32.00;;;21.50;;
13075;SDS011;6604;52.484;13.330;2022-11-15T17:49:50;35.23;;;21.23;;
13075;SDS011;6604;52.484;13.330;2022-11-15T17:52:16;35.37;;;22.07;;
13075;SDS011;6604;52.484;13.330;2022-11-15T17:54:43;37.13;;;23.83;;
13075;SDS011;6604;52.484;13.330;2022-11-15T17:57:09;37.73;;;23.80;;
13075;SDS011;6604;52.484;13.330;2022-11-15T17:59:36;36.27;;;22.80;;
13075;SDS011;6604;52.484;13.330;2022-11-15T18:02:02;36.77;;;23.40;;
13075;SDS011;6604;52.484;13.330;2022-11-15T18:04:30;38.10;;;24.33;;
13075;SDS011;6604;52.484;13.330;2022-11-15T18:06:58;38.17;;;23.20;;
13075;SDS011;6604;52.484;13.330;2022-11-15T18:09:24;37.47;;;23.23;;
13075;SDS011;6604;52.484;13.330;2022-11-15T18:11:51;38.37;;;23.93;;
13075;SDS011;6604;52.484;13.330;2022-11-15T18:14:19;38.40;;;23.50;;
13075;SDS011;6604;52.484;13.330;2022-11-15T18:16:45;41.00;;;23.37;;
13075;SDS011;6604;52.484;13.330;2022-11-15T18:19:12;36.40;;;23.20;;
13075;SDS011;6604;52.484;13.330;2022-11-15T18:21:39;36.40;;;22.90;;
13075;SDS011;6604;52.484;13.330;2022-11-15T18:24:23;38.60;;;23.43;;
13075;SDS011;6604;52.484;13.330;2022-11-15T18:26:49;36.10;;;22.93;;
13075;SDS011;6604;52.484;13.330;2022-11-15T18:29:16;41.20;;;25.53;;
13075;SDS011;6604;52.484;13.330;2022-11-15T18:31:43;37.63;;;23.17;;
13075;SDS011;6604;52.484;13.330;2022-11-15T18:34:11;38.13;;;23.33;;
13075;SDS011;6604;52.484;13.330;2022-11-15T18:36:37;39.33;;;23.87;;
13075;SDS011;6604;52.484;13.330;2022-11-15T18:39:04;37.60;;;23.00;;
13075;SDS011;6604;52.484;13.330;2022-11-15T18:41:32;37.90;;;24.27;;
13075;SDS011;6604;52.484;13.330;2022-11-15T18:44:00;38.87;;;23.17;;
13075;SDS011;6604;52.484;13.330;2022-11-15T18:46:30;41.80;;;23.83;;
13075;SDS011;6604;52.484;13.330;2022-11-15T18:48:57;39.83;;;23.10;;
13075;SDS011;6604;52.484;13.330;2022-11-15T18:51:24;35.87;;;22.77;;
13075;SDS011;6604;52.484;13.330;2022-11-15T18:53:51;39.50;;;23.23;;
13075;SDS011;6604;52.484;13.330;2022-11-15T18:56:18;39.10;;;24.17;;
13075;SDS011;6604;52.484;13.330;2022-11-15T18:58:47;39.07;;;24.23;;
13075;SDS011;6604;52.484;13.330;2022-11-15T19:01:14;40.60;;;23.47;;
13075;SDS011;6604;52.484;13.330;2022-11-15T19:03:41;41.60;;;24.33;;
13075;SDS011;6604;52.484;13.330;2022-11-15T19:06:08;40.10;;;24.17;;
13075;SDS011;6604;52.484;13.330;2022-11-15T19:08:35;40.33;;;23.10;;
13075;SDS011;6604;52.484;13.330;2022-11-15T19:11:04;41.63;;;23.77;;
13075;SDS011;6604;52.484;13.330;2022-11-15T19:13:30;40.60;;;24.40;;
13075;SDS011;6604;52.484;13.330;2022-11-15T19:15:59;34.17;;;22.13;;
13075;SDS011;6604;52.484;13.330;2022-11-15T19:18:25;37.53;;;23.40;;
13075;SDS011;6604;52.484;13.330;2022-11-15T19:20:52;36.63;;;24.03;;
13075;SDS011;6604;52.484;13.330;2022-11-15T19:23:20;42.73;;;23.57;;
13075;SDS011;6604;52.484;13.330;2022-11-15T19:25:52;37.20;;;22.63;;
13075;SDS011;6604;52.484;13.330;2022-11-15T19:28:18;36.80;;;23.40;;
13075;SDS011;6604;52.484;13.330;2022-11-15T19:30:45;39.13;;;24.23;;
13075;SDS011;6604;52.484;13.330;2022-11-15T19:33:13;37.53;;;24.27;;
13075;SDS011;6604;52.484;13.330;2022-11-15T19:35:40;42.40;;;23.73;;
13075;SDS011;6604;52.484;13.330;2022-11-15T19:38:06;37.33;;;22.80;;
13075;SDS011;6604;52.484;13.330;2022-11-15T19:40:33;38.90;;;23.20;;
13075;SDS011;6604;52.484;13.330;2022-11-15T19:42:59;37.73;;;23.40;;
13075;SDS011;6604;52.484;13.330;2022-11-15T19:45:26;40.97;;;24.30;;
13075;SDS011;6604;52.484;13.330;2022-11-15T19:47:52;43.33;;;23.50;;
13075;SDS011;6604;52.484;13.330;2022-11-15T19:50:20;40.83;;;24.07;;
13075;SDS011;6604;52.484;13.330;2022-11-15T19:52:47;40.87;;;23.07;;
13075;SDS011;6604;52.484;13.330;2022-11-15T19:55:13;36.03;;;22.13;;
13075;SDS011;6604;52.484;13.330;2022-11-15T19:57:40;37.17;;;22.53;;
13075;SDS011;6604;52.484;13.330;2022-11-15T20:00:07;41.00;;;24.03;;
13075;SDS011;6604;52.484;13.330;2022-11-15T20:02:33;38.80;;;22.80;;
13075;SDS011;6604;52.484;13.330;2022-11-15T20:05:00;36.87;;;22.73;;
13075;SDS011;6604;52.484;13.330;2022-11-15T20:07:28;43.00;;;24.30;;
13075;SDS011;6604;52.484;13.330;2022-11-15T20:09:57;41.27;;;23.03;;
13075;SDS011;6604;52.484;13.330;2022-11-15T20:12:24;44.87;;;24.37;;
13075;SDS011;6604;52.484;13.330;2022-11-15T20:14:50;42.30;;;24.10;;
13075;SDS011;6604;52.484;13.330;2022-11-15T20:17:17;45.87;;;23.97;;
13075;SDS011;6604;52.484;13.330;2022-11-15T20:19:43;43.43;;;24.30;;
13075;SDS011;6604;52.484;13.330;2022-11-15T20:22:10;43.70;;;22.77;;
13075;SDS011;6604;52.484;13.330;2022-11-15T20:24:38;43.40;;;22.40;;
13075;SDS011;6604;52.484;13.330;2022-11-15T20:27:04;43.10;;;22.37;;
13075;SDS011;6604;52.484;13.330;2022-11-15T20:29:31;38.50;;;23.03;;
13075;SDS011;6604;52.484;13.330;2022-11-15T20:31:58;42.73;;;23.87;;
13075;SDS011;6604;52.484;13.330;2022-11-15T20:34:24;37.70;;;22.10;;
13075;SDS011;6604;52.484;13.330;2022-11-15T20:36:51;42.47;;;24.67;;
13075;SDS011;6604;52.484;13.330;2022-11-15T20:39:17;42.93;;;23.70;;
13075;SDS011;6604;52.484;13.330;2022-11-15T20:41:45;40.80;;;23.27;;
13075;SDS011;6604;52.484;13.330;2022-11-15T20:44:12;37.17;;;22.37;;
13075;SDS011;6604;52.484;13.330;2022-11-15T20:46:39;42.00;;;23.80;;
13075;SDS011;6604;52.484;13.330;2022-11-15T20:49:05;38.30;;;22.20;;
13075;SDS011;6604;52.484;13.330;2022-11-15T20:51:31;43.63;;;22.97;;
13075;SDS011;6604;52.484;13.330;2022-11-15T20:53:58;38.50;;;21.67;;
13075;SDS011;6604;52.484;13.330;2022-11-15T20:56:25;38.87;;;22.57;;
13075;SDS011;6604;52.484;13.330;2022-11-15T20:58:53;40.07;;;22.40;;
13075;SDS011;6604;52.484;13.330;2022-11-15T21:01:20;38.43;;;22.17;;
13075;SDS011;6604;52.484;13.330;2022-11-15T21:03:48;43.37;;;22.27;;
13075;SDS011;6604;52.484;13.330;2022-11-15T21:06:17;38.93;;;20.97;;
13075;SDS011;6604;52.484;13.330;2022-11-15T21:08:45;40.50;;;21.53;;
13075;SDS011;6604;52.484;13.330;2022-11-15T21:11:29;38.57;;;20.33;;
13075;SDS011;6604;52.484;13.330;2022-11-15T21:14:14;39.33;;;21.80;;
13075;SDS011;6604;52.484;13.330;2022-11-15T21:16:40;39.23;;;22.13;;
13075;SDS011;6604;52.484;13.330;2022-11-15T21:19:07;40.10;;;21.93;;
13075;SDS011;6604;52.484;13.330;2022-11-15T21:21:34;38.93;;;21.10;;
13075;SDS011;6604;52.484;13.330;2022-11-15T21:24:01;39.80;;;20.70;;
13075;SDS011;6604;52.484;13.330;2022-11-15T21:26:27;43.03;;;21.87;;
13075;SDS011;6604;52.484;13.330;2022-11-15T21:28:54;37.67;;;20.97;;
13075;SDS011;6604;52.484;13.330;2022-11-15T21:31:22;40.33;;;21.90;;
13075;SDS011;6604;52.484;13.330;2022-11-15T21:33:48;38.43;;;22.10;;
13075;SDS011;6604;52.484;13.330;2022-11-15T21:36:15;41.23;;;22.07;;
13075;SDS011;6604;52.484;13.330;2022-11-15T21:38:41;41.43;;;21.67;;
13075;SDS011;6604;52.484;13.330;2022-11-15T21:41:08;38.93;;;21.03;;
13075;SDS011;6604;52.484;13.330;2022-11-15T21:43:34;42.47;;;21.70;;
13075;SDS011;6604;52.484;13.330;2022-11-15T21:46:02;39.87;;;20.60;;
13075;SDS011;6604;52.484;13.330;2022-11-15T21:48:30;38.17;;;22.53;;
13075;SDS011;6604;52.484;13.330;2022-11-15T21:50:57;38.93;;;20.37;;
13075;SDS011;6604;52.484;13.330;2022-11-15T21:53:24;42.97;;;21.23;;
13075;SDS011;6604;52.484;13.330;2022-11-15T21:55:51;40.40;;;22.07;;
13075;SDS011;6604;52.484;13.330;2022-11-15T21:58:17;40.97;;;21.30;;
13075;SDS011;6604;52.484;13.330;2022-11-15T22:00:44;41.23;;;21.60;;
13075;SDS011;6604;52.484;13.330;2022-11-15T22:03:27;44.93;;;21.23;;
13075;SDS011;6604;52.484;13.330;2022-11-15T22:05:55;41.33;;;22.03;;
13075;SDS011;6604;52.484;13.330;2022-11-15T22:08:22;39.93;;;20.23;;
13075;SDS011;6604;52.484;13.330;2022-11-15T22:10:49;38.23;;;20.80;;
13075;SDS011;6604;52.484;13.330;2022-11-15T22:13:16;38.00;;;20.43;;
13075;SDS011;6604;52.484;13.330;2022-11-15T22:15:43;39.33;;;21.10;;
13075;SDS011;6604;52.484;13.330;2022-11-15T22:18:09;39.40;;;21.20;;
13075;SDS011;6604;52.484;13.330;2022-11-15T22:20:36;41.17;;;20.67;;
13075;SDS011;6604;52.484;13.330;2022-11-15T22:23:04;38.00;;;20.07;;
13075;SDS011;6604;52.484;13.330;2022-11-15T22:25:30;37.33;;;20.37;;